Data for 11/13/2008

Time Sea-Level Adjusted Pressure Absolute Pressure Temperature Relative Humidity Dew Point   
(mb) (inHg) (mb) (inHg) (C) (F) (%) (C) (F)
00:05 1005 29.68 834 24.63 13.7 56.6 40 0.6 33
00:10 1005 29.68 834 24.63 13.7 56.6 40 0.6 33
00:15 1005 29.68 834 24.63 13.7 56.6 41 0.7 33.2
00:20 1005 29.68 834 24.63 13.6 56.5 41 0.6 33.1
00:25 1005 29.68 834 24.63 13.6 56.5 41 0.6 33.1
00:30 1005 29.68 834 24.63 13.5 56.4 42 0.9 33.7
00:35 1005 29.68 834 24.63 13.4 56.2 42 0.9 33.5
00:40 1005 29.68 834 24.63 13.3 56 43 1.1 34
00:45 1005 29.68 834 24.63 13.2 55.7 44 1.3 34.3
00:50 1005 29.68 834 24.63 13.1 55.5 45 1.4 34.5
00:55 1005 29.68 834 24.63 13 55.4 45 1.5 34.7
01:00 1005 29.68 834 24.63 12.9 55.2 45 1.3 34.4
01:05 1005 29.68 834 24.63 12.9 55.1 46 1.5 34.7
01:10 1005 29.68 834 24.63 12.8 55 46 1.6 34.8
01:15 1005 29.68 834 24.63 12.7 54.8 46 1.5 34.7
01:20 1005 29.68 834 24.63 12.7 54.8 46 1.4 34.6
01:25 1005 29.68 834 24.63 12.8 55 46 1.5 34.7
01:30 1005 29.68 834 24.63 12.7 54.9 47 1.7 35
01:35 1005 29.68 834 24.63 12.6 54.7 47 1.7 35
01:40 1005 29.68 834 24.63 12.5 54.5 48 1.9 35.4
01:45 1005 29.68 834 24.63 12.4 54.3 48 1.8 35.3
01:50 1005 29.68 834 24.63 12.4 54.4 48 1.9 35.4
01:55 1005 29.68 834 24.63 12.3 54.1 49 1.8 35.3
02:00 1005 29.68 834 24.63 12.3 54.1 48 1.8 35.2
02:05 1005 29.68 834 24.63 12.3 54.1 49 1.9 35.4
02:10 1005 29.68 834 24.63 12.3 54.1 49 1.8 35.3
02:15 1005 29.68 834 24.63 12.3 54.1 49 1.8 35.3
02:20 1005 29.68 834 24.63 12.3 54.1 49 2 35.5
02:25 1005 29.68 834 24.63 12.2 54 48 1.7 35
02:30 1005 29.68 834 24.63 12.4 54.4 48 1.8 35.2
02:35 1005 29.68 834 24.63 12.4 54.2 49 1.9 35.5
02:40 1005 29.68 834 24.63 12.3 54.1 48 1.7 35
02:45 1005 29.68 834 24.63 12.4 54.3 48 1.8 35.3
02:50 1005 29.68 835 24.66 12.4 54.3 49 2 35.6
02:55 1006 29.71 835 24.66 12.3 54.1 50 2.3 36.1
03:00 1006 29.71 835 24.66 11.9 53.5 65 5.5 42
03:05 1007 29.74 836 24.69 9.8 49.7 81 6.7 44
03:10 1007 29.74 836 24.69 8.3 47 87 6.3 43.3
03:15 1007 29.74 836 24.69 7.5 45.5 85 5.1 41.3
03:20 1007 29.74 836 24.69 6 42.8 89 4.3 39.8
03:25 1007 29.74 837 24.72 5.5 42 91 4.1 39.4
03:30 1008 29.77 837 24.72 5.4 41.7 90 3.9 39
03:35 1008 29.77 837 24.72 5.4 41.7 90 3.9 39
03:40 1008 29.77 837 24.72 5.3 41.6 90 3.8 38.9
03:45 1008 29.77 837 24.72 5.2 41.4 90 3.7 38.7
03:50 1008 29.77 837 24.72 5.2 41.3 90 3.7 38.6
03:55 1008 29.77 837 24.72 5.1 41.2 90 3.6 38.6
04:00 1008 29.77 837 24.72 5 41 90 3.5 38.3
04:05 1008 29.77 838 24.75 4.9 40.9 91 3.6 38.4
04:10 1009 29.8 838 24.75 4.8 40.7 91 3.4 38.2
04:15 1009 29.8 838 24.75 4.8 40.6 92 3.5 38.3
04:20 1009 29.8 838 24.75 4.7 40.5 91 3.4 38.1
04:25 1009 29.8 838 24.75 4.7 40.4 92 3.4 38.1
04:30 1009 29.8 838 24.75 4.6 40.3 92 3.4 38.2
04:35 1009 29.8 838 24.75 4.6 40.3 92 3.5 38.3
04:40 1009 29.8 838 24.75 4.6 40.4 93 3.6 38.4
04:45 1009 29.8 838 24.75 4.7 40.4 92 3.6 38.4
04:50 1009 29.8 838 24.75 4.6 40.3 93 3.5 38.3
04:55 1009 29.8 838 24.75 4.6 40.3 93 3.5 38.4
05:00 1009 29.8 839 24.78 4.7 40.4 93 3.6 38.5
05:05 1009 29.8 839 24.78 4.7 40.5 93 3.6 38.6
05:10 1009 29.8 839 24.78 4.8 40.6 93 3.7 38.6
05:15 1009 29.8 839 24.78 4.8 40.7 93 3.8 38.8
05:20 1009 29.8 839 24.78 4.8 40.7 92 3.7 38.7
05:25 1010 29.83 839 24.78 4.8 40.7 93 3.8 38.8
05:30 1009 29.8 839 24.78 4.8 40.7 92 3.7 38.7
05:35 1009 29.8 839 24.78 4.8 40.6 93 3.7 38.6
05:40 1010 29.83 839 24.78 4.8 40.7 93 3.7 38.7
05:45 1010 29.83 839 24.78 4.8 40.7 92 3.6 38.5
05:50 1010 29.83 839 24.78 4.8 40.7 91 3.5 38.4
05:55 1010 29.83 839 24.78 4.8 40.7 93 3.7 38.7
06:00 1010 29.83 839 24.78 4.7 40.5 93 3.6 38.5
06:05 1010 29.83 839 24.78 4.5 40.2 94 3.7 38.6
06:10 1010 29.83 839 24.78 4.3 39.7 95 3.5 38.4
06:15 1010 29.83 839 24.78 4.2 39.5 95 3.4 38.2
06:20 1010 29.83 839 24.78 4.2 39.5 94 3.3 38
06:25 1010 29.83 839 24.78 4.2 39.5 95 3.4 38.1
06:30 1010 29.83 839 24.78 4.3 39.8 91 3 37.4
06:35 1010 29.83 839 24.78 4.5 40.1 92 3.3 37.9
06:40 1010 29.83 839 24.78 4.4 39.9 93 3.3 38
06:45 1010 29.83 839 24.78 4.4 39.9 92 3.2 37.8
06:50 1010 29.83 839 24.78 4.4 40 91 3.1 37.7
06:55 1010 29.83 839 24.78 4.5 40 91 3.1 37.6
07:00 1010 29.83 839 24.78 4.5 40.2 89 2.9 37.2
07:05 1010 29.83 839 24.78 4.6 40.3 90 3 37.5
07:10 1010 29.83 839 24.78 4.6 40.4 88 2.8 37
07:15 1010 29.83 839 24.78 4.6 40.3 87 2.6 36.7
07:20 1010 29.83 839 24.78 4.7 40.4 87 2.7 36.8
07:25 1010 29.83 840 24.81 4.7 40.4 87 2.7 36.9
07:30 1011 29.85 840 24.81 4.8 40.7 86 2.7 36.8
07:35 1011 29.85 840 24.81 4.6 40.3 89 3 37.4
07:40 1011 29.85 840 24.81 4.3 39.8 91 2.9 37.3
07:45 1010 29.83 840 24.81 4.2 39.5 91 2.8 37.1
07:50 1011 29.85 840 24.81 4.2 39.5 90 2.7 36.9
07:55 1011 29.85 840 24.81 4.3 39.8 88 2.5 36.5
08:00 1011 29.85 840 24.81 4.6 40.2 85 2.3 36.2
08:05 1011 29.85 840 24.81 4.6 40.3 86 2.6 36.6
08:10 1011 29.85 840 24.81 4.3 39.7 88 2.4 36.3
08:15 1011 29.85 840 24.81 4.2 39.6 88 2.4 36.3
08:20 1011 29.85 840 24.81 4.4 40 85 2.1 35.7
08:25 1011 29.85 840 24.81 4.8 40.6 82 1.9 35.5
08:30 1011 29.85 840 24.81 5 41 81 2.1 35.7
08:35 1011 29.85 840 24.81 5.2 41.3 80 2.1 35.7
08:40 1011 29.85 840 24.81 5.4 41.7 79 2 35.6
08:45 1011 29.85 840 24.81 5.3 41.6 79 2 35.5
08:50 1011 29.85 840 24.81 5.4 41.7 76 1.6 34.9
08:55 1011 29.85 840 24.81 5.7 42.3 72 1.1 33.9
09:00 1011 29.85 840 24.81 6.1 42.9 70 1 33.8
09:05 1011 29.85 840 24.81 6.2 43.2 69 1 33.8
09:10 1011 29.85 840 24.81 6.3 43.4 69 1.1 34.1
09:15 1011 29.85 840 24.81 6.4 43.5 68 1 33.9
09:20 1011 29.85 840 24.81 6.6 43.9 68 1.1 34
09:25 1011 29.85 840 24.81 6.8 44.3 67 1 33.9
09:30 1011 29.85 840 24.81 6.8 44.2 65 0.8 33.4
09:35 1011 29.85 840 24.81 7.2 45 63 0.7 33.2
09:40 1011 29.85 840 24.81 7.3 45.2 62 0.6 33.1
09:45 1011 29.85 840 24.81 7.5 45.5 62 0.6 33.1
09:50 1011 29.85 840 24.81 7.8 46.1 60 0.5 33
09:55 1011 29.85 840 24.81 8 46.4 60 0.7 33.2
10:00 1011 29.85 840 24.81 7.9 46.2 61 0.8 33.4
10:05 1011 29.85 840 24.81 7.8 46 61 0.6 33.1
10:10 1011 29.85 840 24.81 7.6 45.7 62 0.8 33.4
10:15 1011 29.85 841 24.83 7.5 45.5 60 0.3 32.5
10:20 1011 29.85 841 24.83 7.4 45.4 61 0.5 32.9
10:25 1011 29.85 841 24.83 7.3 45.2 62 0.5 32.9
10:30 1011 29.85 841 24.83 7.3 45.1 62 0.6 33.1
10:35 1011 29.85 840 24.81 7.5 45.6 61 0.6 33.1
10:40 1011 29.85 840 24.81 7.7 45.8 63 1 33.8
10:45 1011 29.85 840 24.81 7.9 46.2 61 0.9 33.6
10:50 1011 29.85 840 24.81 8 46.4 60 0.8 33.5
10:55 1011 29.85 840 24.81 8.2 46.7 53 -0.8 30.5
11:00 1011 29.85 840 24.81 8.3 46.9 51 -1.2 29.9
11:05 1011 29.85 840 24.81 8.5 47.2 50 -1.4 29.5
11:10 1011 29.85 840 24.81 8.4 47.1 52 -1 30.3
11:15 1011 29.85 840 24.81 8.3 46.9 51 -1.2 29.9
11:20 1011 29.85 840 24.81 8.2 46.7 50 -1.8 28.8
11:25 1011 29.85 840 24.81 8.1 46.7 51 -1.2 29.8
11:30 1011 29.85 840 24.81 8.3 46.9 50 -1.5 29.3
11:35 1011 29.85 840 24.81 8.3 47 41 -4 24.7
11:40 1010 29.83 840 24.81 8.9 48 36 -5.5 22.1
11:45 1010 29.83 839 24.78 9.4 48.8 33 -6.1 21
11:50 1010 29.83 839 24.78 9.6 49.3 31 -6.5 20.3
11:55 1010 29.83 839 24.78 9.4 48.9 33 -5.9 21.3
12:00 1010 29.83 839 24.78 9.2 48.6 31 -6.9 19.6
12:05 1010 29.83 839 24.78 9.1 48.4 31 -7 19.5
12:10 1010 29.83 839 24.78 9.2 48.5 29 -7.8 18
12:15 1010 29.83 839 24.78 8.9 48 30 -7.6 18.4
12:20 1010 29.83 839 24.78 8.9 48 32 -7.1 19.3
12:25 1010 29.83 839 24.78 9.2 48.5 31 -7 19.4
12:30 1010 29.83 839 24.78 9.3 48.7 28 -8.5 16.7
12:35 1009 29.8 839 24.78 9.7 49.4 29 -7.7 18.1
12:40 1009 29.8 839 24.78 10.2 50.3 29 -7.3 18.9
12:45 1009 29.8 839 24.78 10.1 50.2 28 -7.6 18.2
12:50 1009 29.8 839 24.78 10 50 28 -7.6 18.3
12:55 1009 29.8 839 24.78 10.1 50.1 26 -8.5 16.7
13:00 1010 29.83 839 24.78 9.7 49.5 28 -7.8 17.9
13:05 1010 29.83 839 24.78 9.5 49 28 -8.1 17.4
13:10 1010 29.83 839 24.78 9.6 49.4 28 -7.9 17.8
13:15 1010 29.83 839 24.78 9.6 49.3 29 -7.5 18.5
13:20 1010 29.83 839 24.78 9.4 48.9 30 -7.3 18.9
13:25 1010 29.83 839 24.78 9.8 49.6 27 -8.1 17.3
13:30 1010 29.83 839 24.78 10.1 50.2 27 -7.9 17.8
13:35 1010 29.83 839 24.78 10.1 50.1 26 -8.4 16.9
13:40 1010 29.83 839 24.78 9.8 49.7 27 -8.2 17.3
13:45 1010 29.83 839 24.78 9.7 49.5 27 -8.2 17.2
13:50 1010 29.83 839 24.78 9.4 48.8 29 -7.8 18
13:55 1010 29.83 839 24.78 9.6 49.3 29 -7.5 18.5
14:00 1010 29.83 839 24.78 9.4 48.9 29 -7.6 18.3
14:05 1010 29.83 839 24.78 9.4 48.9 30 -7.3 18.9
14:10 1010 29.83 839 24.78 9.8 49.6 30 -7.2 19.1
14:15 1010 29.83 839 24.78 9.6 49.2 30 -7.1 19.2
14:20 1010 29.83 839 24.78 9.8 49.6 30 -7.2 19.1
14:25 1010 29.83 839 24.78 9.6 49.2 30 -7 19.5
14:30 1010 29.83 839 24.78 9.6 49.2 30 -7 19.4
14:35 1010 29.83 839 24.78 10 50 29 -7 19.4
14:40 1010 29.83 839 24.78 10 49.9 30 -6.7 20
14:45 1010 29.83 839 24.78 9.7 49.5 30 -7.1 19.2
14:50 1010 29.83 840 24.81 9.8 49.6 31 -6.5 20.3
14:55 1010 29.83 840 24.81 9.5 49.1 32 -6.3 20.6
15:00 1011 29.85 840 24.81 9.2 48.5 30 -7.3 18.9
15:05 1011 29.85 840 24.81 8.9 48 33 -6.6 20.2
15:10 1011 29.85 840 24.81 8.5 47.3 42 -3.7 25.4
15:15 1011 29.85 840 24.81 7.9 46.2 44 -3.5 25.7
15:20 1011 29.85 840 24.81 7.4 45.4 45 -3.7 25.4
15:25 1011 29.85 841 24.83 7.1 44.7 47 -3.6 25.6
15:30 1012 29.88 841 24.83 7.1 44.7 47 -3.6 25.6
15:35 1012 29.88 841 24.83 7.3 45.1 47 -3.3 26
15:40 1012 29.88 841 24.83 7 44.6 47 -3.4 25.9
15:45 1012 29.88 841 24.83 6.7 44 49 -3.4 25.9
15:50 1012 29.88 841 24.83 6.5 43.7 51 -2.9 26.7
15:55 1012 29.88 841 24.83 5.9 42.6 57 -2 28.4
16:00 1012 29.88 841 24.83 5.2 41.4 60 -2 28.4
16:05 1012 29.88 842 24.86 4.8 40.6 62 -1.9 28.6
16:10 1013 29.91 842 24.86 4.5 40.1 63 -2 28.4
16:15 1013 29.91 842 24.86 4.4 40 62 -2.2 28.1
16:20 1013 29.91 842 24.86 4.4 39.9 62 -2.1 28.2
16:25 1013 29.91 842 24.86 4.2 39.6 62 -2.5 27.6
16:30 1013 29.91 842 24.86 4.2 39.6 62 -2.4 27.7
16:35 1013 29.91 842 24.86 4.2 39.6 61 -2.6 27.3
16:40 1013 29.91 842 24.86 4.2 39.5 61 -2.8 27
16:45 1013 29.91 842 24.86 4 39.3 62 -2.6 27.4
16:50 1013 29.91 842 24.86 3.8 38.9 63 -2.5 27.5
16:55 1013 29.91 843 24.89 3.7 38.6 64 -2.5 27.5
17:00 1013 29.91 843 24.89 3.5 38.3 64 -2.6 27.4
17:05 1013 29.91 843 24.89 3.4 38.1 64 -2.8 27
17:10 1014 29.94 843 24.89 3.3 38 64 -2.9 26.7
17:15 1014 29.94 843 24.89 3.3 37.9 62 -3.2 26.3
17:20 1014 29.94 843 24.89 3.4 38.2 60 -3.5 25.6
17:25 1014 29.94 843 24.89 3.5 38.4 61 -3.4 26
17:30 1014 29.94 844 24.92 3.5 38.3 62 -3 26.6
17:35 1014 29.94 844 24.92 3.3 37.9 64 -2.9 26.9
17:40 1014 29.94 844 24.92 3.1 37.5 66 -2.7 27.1
17:45 1014 29.94 844 24.92 2.9 37.2 66 -2.8 26.9
17:50 1014 29.94 844 24.92 2.8 37 67 -2.8 26.9
17:55 1014 29.94 844 24.92 2.7 36.9 67 -2.9 26.9
18:00 1014 29.94 844 24.92 2.6 36.7 67 -2.9 26.7
18:05 1015 29.97 844 24.92 2.5 36.5 67 -3 26.7
18:10 1015 29.97 844 24.92 2.4 36.4 67 -3.1 26.4
18:15 1015 29.97 844 24.92 2.3 36.2 65 -3.6 25.5
18:20 1015 29.97 844 24.92 2.4 36.4 64 -3.6 25.5
18:25 1015 29.97 844 24.92 2.2 35.9 67 -3.4 25.9
18:30 1015 29.97 844 24.92 2 35.5 67 -3.5 25.7
18:35 1015 29.97 845 24.95 1.9 35.4 67 -3.7 25.4
18:40 1015 29.97 845 24.95 1.8 35.3 67 -3.6 25.5
18:45 1016 30 845 24.95 1.7 35 67 -3.7 25.3
18:50 1016 30 845 24.95 1.5 34.8 68 -3.8 25.2
18:55 1016 30 845 24.95 1.6 34.9 68 -3.7 25.3
19:00 1016 30 845 24.95 1.8 35.3 66 -3.8 25.2
19:05 1016 30 845 24.95 1.9 35.4 67 -3.7 25.4
19:10 1016 30 845 24.95 1.9 35.4 66 -3.8 25.2
19:15 1016 30 845 24.95 1.9 35.4 67 -3.7 25.3
19:20 1016 30 845 24.95 1.8 35.3 66 -3.8 25.2
19:25 1016 30 845 24.95 1.8 35.3 66 -3.9 25
19:30 1016 30 846 24.98 1.9 35.4 65 -3.9 24.9
19:35 1017 30.03 846 24.98 1.9 35.4 64 -4.2 24.4
19:40 1017 30.03 846 24.98 2 35.5 59 -5.1 22.8
19:45 1017 30.03 846 24.98 1.7 35.1 70 -3.1 26.4
19:50 1017 30.03 847 25.01 1.3 34.4 70 -3.5 25.7
19:55 1018 30.06 847 25.01 1 33.8 75 -2.9 26.8
20:00 1018 30.06 847 25.01 0.1 32.1 91 -1.3 29.6
20:05 1018 30.06 848 25.04 -0.9 30.4 95 -1.6 29.1
20:10 1019 30.09 848 25.04 -1.1 30.1 95 -1.7 28.9
20:15 1019 30.09 848 25.04 -1.2 29.8 95 -1.9 28.6
20:20 1019 30.09 848 25.04 -1.2 29.8 95 -2 28.4
20:25 1019 30.09 848 25.04 -1.1 30 94 -2 28.4
20:30 1019 30.09 848 25.04 -1 30.2 93 -2 28.5
20:35 1019 30.09 848 25.04 -1 30.3 93 -2 28.4
20:40 1019 30.09 848 25.04 -0.9 30.4 92 -2.1 28.3
20:45 1019 30.09 848 25.04 -0.9 30.4 92 -2 28.3
20:50 1019 30.09 848 25.04 -0.8 30.6 91 -2 28.3
20:55 1019 30.09 848 25.04 -0.7 30.7 86 -2.7 27.1
21:00 1019 30.09 849 25.07 -0.5 31.2 78 -3.9 25
21:05 1019 30.09 849 25.07 -0.2 31.6 71 -4.8 23.3
21:10 1020 30.12 849 25.07 -0.2 31.7 63 -6.4 20.5
21:15 1020 30.12 849 25.07 -0.2 31.7 61 -6.8 19.8
21:20 1020 30.12 849 25.07 -0.2 31.7 58 -7.5 18.4
21:25 1020 30.12 849 25.07 -0.2 31.6 56 -8 17.7
21:30 1020 30.12 850 25.1 -0.2 31.6 55 -8.2 17.2
21:35 1020 30.12 850 25.1 -0.2 31.6 56 -8 17.6
21:40 1021 30.15 850 25.1 -0.3 31.5 57 -7.7 18.1
21:45 1021 30.15 850 25.1 -0.3 31.5 57 -7.9 17.8
21:50 1021 30.15 850 25.1 -0.2 31.6 55 -8.3 17
21:55 1021 30.15 850 25.1 -0.2 31.6 55 -8.2 17.2
22:00 1021 30.15 850 25.1 -0.3 31.5 55 -8.1 17.4
22:05 1021 30.15 850 25.1 -0.4 31.4 55 -8.2 17.2
22:10 1021 30.15 850 25.1 -0.4 31.4 55 -8.3 17.1
22:15 1021 30.15 851 25.13 -0.3 31.4 56 -8.1 17.4
22:20 1021 30.15 851 25.13 -0.4 31.3 56 -8.1 17.5
22:25 1022 30.18 851 25.13 -0.4 31.2 58 -7.7 18.1
22:30 1022 30.18 851 25.13 -0.4 31.2 56 -8.1 17.5
22:35 1022 30.18 851 25.13 -0.4 31.3 56 -8.2 17.2
22:40 1022 30.18 851 25.13 -0.4 31.3 56 -8.1 17.5
22:45 1022 30.18 851 25.13 -0.4 31.4 56 -8.1 17.4
22:50 1022 30.18 851 25.13 -0.4 31.4 56 -8.1 17.4
22:55 1022 30.18 851 25.13 -0.4 31.3 56 -8.2 17.2
23:00 1022 30.18 851 25.13 -0.4 31.2 56 -8.2 17.2
23:05 1022 30.18 851 25.13 -0.5 31.1 57 -8.1 17.5
23:10 1022 30.18 852 25.16 -0.6 31 57 -8.1 17.5
23:15 1022 30.18 852 25.16 -0.6 30.9 57 -8 17.5
23:20 1023 30.21 852 25.16 -0.6 30.9 58 -7.8 17.9
23:25 1023 30.21 852 25.16 -0.7 30.7 58 -7.9 17.8
23:30 1023 30.21 852 25.16 -0.8 30.6 57 -8.2 17.3
23:35 1023 30.21 852 25.16 -0.7 30.7 57 -8.2 17.3
23:40 1023 30.21 852 25.16 -0.6 30.8 58 -8 17.6
23:45 1023 30.21 852 25.16 -0.6 31 57 -8.1 17.5
23:50 1023 30.21 852 25.16 -0.6 31 57 -8.1 17.5
23:55 1023 30.21 852 25.16 -0.6 31 58 -7.8 17.9
24:00 1023 30.21 852 25.16 -0.6 30.9 58 -7.8 18